Time;durP1;ratioP1;P1;durP2;ratioP2;P2;SDS_P1;SDS_P2;PMS_P1;PMS_P2;Temp;Humidity;BMP_temperature;BMP_pressure;BME280_temperature;BME280_humidity;BME280_pressure;Samples;Min_cycle;Max_cycle;Signal;HPM_P1;HPM_P2
2023/06/30 00:02:12;;;;;;;10.32;2.92;;;16.00;99.90;;;;;;5081088;28;20049;-58
2023/06/30 00:04:38;;;;;;;11.10;2.63;;;16.00;99.90;;;;;;5077589;28;20119;-55
2023/06/30 00:07:05;;;;;;;12.85;3.13;;;16.00;99.90;;;;;;5062273;28;20344;-56
2023/06/30 00:09:31;;;;;;;12.68;2.80;;;15.90;99.90;;;;;;5073329;28;20055;-57
2023/06/30 00:11:57;;;;;;;13.57;2.88;;;15.90;99.90;;;;;;5081406;28;20044;-56
2023/06/30 00:14:23;;;;;;;8.60;2.92;;;15.80;99.90;;;;;;5081102;28;20535;-57
2023/06/30 00:16:50;;;;;;;11.93;3.03;;;15.80;99.90;;;;;;5082685;28;20080;-56
2023/06/30 00:19:19;;;;;;;11.73;3.30;;;15.80;99.90;;;;;;5080977;28;20053;-57
2023/06/30 00:21:45;;;;;;;15.15;3.08;;;15.80;99.90;;;;;;5082853;28;20052;-57
2023/06/30 00:24:12;;;;;;;10.80;2.70;;;15.70;99.90;;;;;;5067144;28;20061;-57
2023/06/30 00:26:39;;;;;;;12.18;3.15;;;15.70;99.90;;;;;;5082268;28;20040;-57
2023/06/30 00:29:05;;;;;;;16.00;3.45;;;15.70;99.90;;;;;;5069034;28;20144;-57
2023/06/30 00:31:31;;;;;;;9.95;2.67;;;15.60;99.90;;;;;;5060910;28;20045;-57
2023/06/30 00:33:57;;;;;;;11.77;2.88;;;15.60;99.90;;;;;;5062544;28;20756;-57
2023/06/30 00:36:23;;;;;;;6.55;2.72;;;15.60;99.90;;;;;;5072038;28;20036;-56
2023/06/30 00:38:54;;;;;;;9.55;2.60;;;15.50;99.90;;;;;;5062097;28;20044;-59
2023/06/30 00:41:20;;;;;;;9.68;2.63;;;15.50;99.90;;;;;;5076675;28;20052;-54
2023/06/30 00:43:46;;;;;;;11.27;3.72;;;15.50;99.90;;;;;;5070271;28;20051;-57
2023/06/30 00:46:15;;;;;;;9.45;2.67;;;15.50;99.90;;;;;;5082212;28;20076;-58
2023/06/30 00:48:41;;;;;;;9.45;2.33;;;15.40;99.90;;;;;;5075726;28;20059;-57
2023/06/30 00:51:07;;;;;;;11.45;2.50;;;15.40;99.90;;;;;;5077552;28;20132;-58
2023/06/30 00:53:33;;;;;;;15.65;2.97;;;15.40;99.90;;;;;;5069801;28;20696;-57
2023/06/30 00:55:58;;;;;;;10.38;2.95;;;15.30;99.90;;;;;;5080618;28;20041;-58
2023/06/30 00:58:24;;;;;;;9.57;3.00;;;15.40;99.90;;;;;;5076943;28;20040;-57
2023/06/30 01:00:59;;;;;;;8.63;2.08;;;15.30;99.90;;;;;;5069516;28;20033;-57
2023/06/30 01:03:34;;;;;;;11.45;2.60;;;15.30;99.90;;;;;;5081511;28;20049;-57
2023/06/30 01:06:22;;;;;;;9.57;2.60;;;15.30;99.90;;;;;;5078623;28;20033;-57
2023/06/30 01:09:00;;;;;;;9.77;2.95;;;15.30;99.90;;;;;;5081027;28;20075;-57
2023/06/30 01:11:26;;;;;;;13.60;2.65;;;15.30;99.90;;;;;;5066278;28;20496;-56
2023/06/30 01:13:55;;;;;;;11.57;2.70;;;15.20;99.90;;;;;;5063067;28;20048;-56
2023/06/30 01:16:23;;;;;;;13.50;2.88;;;15.20;99.90;;;;;;5061817;28;20048;-57
2023/06/30 01:18:52;;;;;;;9.30;3.03;;;15.20;99.90;;;;;;5060235;28;20037;-56
2023/06/30 01:21:23;;;;;;;10.98;3.10;;;15.10;99.90;;;;;;5070009;28;20062;-57
2023/06/30 01:23:55;;;;;;;11.43;2.78;;;15.10;99.90;;;;;;5071943;28;20535;-57
2023/06/30 01:26:23;;;;;;;9.00;2.50;;;15.00;99.90;;;;;;5079812;28;20045;-57
2023/06/30 01:28:50;;;;;;;9.98;2.95;;;15.00;99.90;;;;;;5077884;28;20516;-57
2023/06/30 01:31:18;;;;;;;8.48;2.65;;;15.00;99.90;;;;;;5063314;28;20056;-57
2023/06/30 01:33:44;;;;;;;12.13;2.92;;;15.00;99.90;;;;;;5061018;28;20045;-56
2023/06/30 01:36:09;;;;;;;11.52;2.90;;;14.90;99.90;;;;;;5060772;28;20076;-56
2023/06/30 01:38:35;;;;;;;7.68;2.47;;;14.90;99.90;;;;;;5065346;28;20100;-57
2023/06/30 01:41:02;;;;;;;8.85;3.05;;;14.90;99.90;;;;;;5075634;28;20405;-57
2023/06/30 01:43:29;;;;;;;9.02;2.70;;;14.80;99.90;;;;;;5071324;28;20436;-57
2023/06/30 01:45:55;;;;;;;12.05;2.95;;;14.80;99.90;;;;;;5081116;28;20070;-57
2023/06/30 01:48:21;;;;;;;16.00;2.92;;;14.80;99.90;;;;;;5070797;28;20154;-57
2023/06/30 01:50:48;;;;;;;12.18;3.17;;;14.80;99.90;;;;;;5080479;28;20495;-56
2023/06/30 01:53:14;;;;;;;10.68;2.45;;;14.70;99.90;;;;;;5078819;28;20040;-56
2023/06/30 01:55:46;;;;;;;9.25;2.60;;;14.70;99.90;;;;;;5067985;28;20048;-56
2023/06/30 01:58:12;;;;;;;9.63;2.75;;;14.70;99.90;;;;;;5062955;28;20041;-57
2023/06/30 02:00:38;;;;;;;12.80;2.72;;;14.70;99.90;;;;;;5075412;28;20040;-57
2023/06/30 02:03:03;;;;;;;11.35;2.85;;;14.70;99.90;;;;;;5065574;28;20052;-56
2023/06/30 02:05:29;;;;;;;7.18;2.53;;;14.70;99.90;;;;;;5078862;28;20063;-57
2023/06/30 02:07:54;;;;;;;10.32;2.30;;;14.60;99.90;;;;;;5070049;28;20037;-56
2023/06/30 02:10:20;;;;;;;10.45;2.53;;;14.60;99.90;;;;;;5071723;28;20041;-57
2023/06/30 02:12:46;;;;;;;9.20;2.38;;;14.60;99.90;;;;;;5071733;28;20048;-56
2023/06/30 02:15:11;;;;;;;11.63;2.92;;;14.50;99.90;;;;;;5058951;28;20736;-56
2023/06/30 02:17:38;;;;;;;9.57;2.60;;;14.50;99.90;;;;;;5066561;28;20033;-56
2023/06/30 02:20:05;;;;;;;7.40;1.90;;;14.50;99.90;;;;;;5074385;28;20041;-56
2023/06/30 02:22:31;;;;;;;6.40;2.38;;;14.40;99.90;;;;;;5067601;28;20447;-59
2023/06/30 02:24:57;;;;;;;10.80;2.50;;;14.40;99.90;;;;;;5069311;28;20096;-57
2023/06/30 02:27:24;;;;;;;7.13;2.40;;;14.40;99.90;;;;;;5076470;28;20068;-57
2023/06/30 02:29:50;;;;;;;12.23;2.40;;;14.30;99.90;;;;;;5077752;28;20044;-56
2023/06/30 02:32:16;;;;;;;9.57;2.78;;;14.30;99.90;;;;;;5067295;28;20083;-57
2023/06/30 02:34:41;;;;;;;9.63;2.47;;;14.20;99.90;;;;;;5077434;28;20045;-58
2023/06/30 02:37:07;;;;;;;10.77;2.55;;;14.20;99.90;;;;;;5071175;28;20077;-56
2023/06/30 02:39:33;;;;;;;10.52;2.58;;;14.20;99.90;;;;;;5069977;28;20037;-57
2023/06/30 02:41:58;;;;;;;10.82;2.60;;;14.10;99.90;;;;;;5078802;28;20048;-56
2023/06/30 02:44:24;;;;;;;12.23;2.90;;;14.10;99.90;;;;;;5066229;28;20039;-58
2023/06/30 02:46:50;;;;;;;9.68;2.78;;;14.00;99.90;;;;;;5065312;28;20049;-56
2023/06/30 02:49:16;;;;;;;8.63;2.50;;;14.00;99.90;;;;;;5069682;28;20503;-57
2023/06/30 02:51:41;;;;;;;9.10;2.25;;;14.00;99.90;;;;;;5062099;28;20041;-57
2023/06/30 02:54:07;;;;;;;14.98;2.78;;;14.00;99.90;;;;;;5059021;28;20072;-57
2023/06/30 02:56:33;;;;;;;5.88;2.10;;;13.90;99.90;;;;;;5059749;28;20041;-57
2023/06/30 02:58:58;;;;;;;8.90;2.60;;;13.90;99.90;;;;;;5059390;28;20047;-56
2023/06/30 03:01:24;;;;;;;12.27;2.60;;;13.80;99.90;;;;;;5067614;28;20075;-57
2023/06/30 03:03:52;;;;;;;7.60;2.38;;;13.90;99.90;;;;;;5079430;28;20040;-57
2023/06/30 03:06:20;;;;;;;11.05;2.67;;;13.80;99.90;;;;;;5077534;28;20045;-57
2023/06/30 03:08:46;;;;;;;12.10;2.58;;;13.80;99.90;;;;;;5079167;28;20037;-57
2023/06/30 03:11:12;;;;;;;8.73;2.45;;;13.70;99.90;;;;;;5068828;28;20040;-57
2023/06/30 03:13:38;;;;;;;12.88;2.85;;;13.70;99.90;;;;;;5075515;28;20147;-57
2023/06/30 03:16:04;;;;;;;8.18;2.80;;;13.70;99.90;;;;;;5059884;28;20059;-57
2023/06/30 03:18:30;;;;;;;9.18;2.70;;;13.70;99.90;;;;;;5075725;28;20044;-57
2023/06/30 03:20:56;;;;;;;9.45;2.65;;;13.60;99.90;;;;;;5072097;28;20047;-56
2023/06/30 03:23:21;;;;;;;9.52;2.83;;;13.60;99.90;;;;;;5057213;28;20108;-57
2023/06/30 03:25:47;;;;;;;9.57;2.65;;;13.60;99.90;;;;;;5058827;28;20032;-57
2023/06/30 03:28:13;;;;;;;7.15;2.50;;;13.50;99.90;;;;;;5074301;28;20079;-56
2023/06/30 03:30:38;;;;;;;11.35;3.15;;;13.50;99.90;;;;;;5073454;28;20068;-57
2023/06/30 03:33:05;;;;;;;10.20;2.60;;;13.50;99.90;;;;;;5059188;28;20072;-57
2023/06/30 03:35:30;;;;;;;8.90;2.97;;;13.40;99.90;;;;;;5070310;28;20041;-58
2023/06/30 03:37:56;;;;;;;7.63;2.65;;;13.40;99.90;;;;;;5058764;28;20049;-56
2023/06/30 03:40:22;;;;;;;9.02;2.90;;;13.40;99.90;;;;;;5060992;28;20056;-57
2023/06/30 03:42:47;;;;;;;8.35;2.92;;;13.30;99.90;;;;;;5063688;28;20049;-59
2023/06/30 03:45:13;;;;;;;7.85;2.95;;;13.30;99.90;;;;;;5058151;28;20037;-56
2023/06/30 03:47:39;;;;;;;10.02;2.97;;;13.30;99.90;;;;;;5059227;28;20068;-57
2023/06/30 03:50:05;;;;;;;6.72;2.67;;;13.20;99.90;;;;;;5059124;28;20033;-55
2023/06/30 03:52:31;;;;;;;11.77;2.90;;;13.20;99.90;;;;;;5061062;28;20080;-54
2023/06/30 03:54:57;;;;;;;8.52;2.70;;;13.20;99.90;;;;;;5059398;28;20063;-56
2023/06/30 03:57:22;;;;;;;6.97;3.08;;;13.10;99.90;;;;;;5057596;28;20051;-57
2023/06/30 03:59:48;;;;;;;7.88;2.97;;;13.10;99.90;;;;;;5058216;28;20547;-57
2023/06/30 04:02:14;;;;;;;10.48;3.10;;;13.10;99.90;;;;;;5056751;28;20049;-57
2023/06/30 04:04:39;;;;;;;6.97;3.50;;;13.10;99.90;;;;;;5061613;28;20041;-57
2023/06/30 04:07:05;;;;;;;7.07;2.83;;;13.10;99.90;;;;;;5058319;28;20037;-57
2023/06/30 04:09:31;;;;;;;7.95;3.05;;;13.10;99.90;;;;;;5058172;28;20136;-55
2023/06/30 04:11:57;;;;;;;8.50;3.05;;;13.10;99.90;;;;;;5059010;28;20037;-55
2023/06/30 04:14:22;;;;;;;13.25;3.22;;;13.10;99.90;;;;;;5056387;28;20504;-56
2023/06/30 04:16:48;;;;;;;8.68;2.90;;;13.10;99.90;;;;;;5078379;28;20045;-56
2023/06/30 04:19:14;;;;;;;8.10;3.15;;;13.10;99.90;;;;;;5077225;28;20044;-56
2023/06/30 04:21:39;;;;;;;8.90;3.20;;;13.10;99.90;;;;;;5076982;28;20048;-56
2023/06/30 04:24:05;;;;;;;11.63;3.17;;;13.10;99.90;;;;;;5077483;28;20698;-56
2023/06/30 04:26:31;;;;;;;10.00;3.50;;;13.20;99.90;;;;;;5077462;28;20037;-56
2023/06/30 04:28:57;;;;;;;9.60;3.42;;;13.20;99.90;;;;;;5060830;28;20062;-56
2023/06/30 04:31:23;;;;;;;9.13;3.17;;;13.20;99.90;;;;;;5057207;28;20051;-57
2023/06/30 04:33:49;;;;;;;7.93;3.28;;;13.20;99.90;;;;;;5060152;28;20075;-56
2023/06/30 04:36:17;;;;;;;9.45;3.17;;;13.20;99.90;;;;;;5059241;28;20072;-57
2023/06/30 04:38:46;;;;;;;10.95;3.33;;;13.20;99.90;;;;;;5064284;28;20099;-57
2023/06/30 04:41:12;;;;;;;8.15;3.30;;;13.30;99.90;;;;;;5078271;28;20119;-56
2023/06/30 04:43:38;;;;;;;13.20;4.15;;;13.30;99.90;;;;;;5070378;28;20091;-57
2023/06/30 04:46:03;;;;;;;7.50;3.30;;;13.30;99.90;;;;;;5070901;28;20037;-57
2023/06/30 04:48:29;;;;;;;9.18;3.28;;;13.30;99.90;;;;;;5067407;28;20046;-57
2023/06/30 04:50:55;;;;;;;7.82;3.63;;;13.30;99.90;;;;;;5080143;28;20078;-56
2023/06/30 04:53:20;;;;;;;9.70;3.67;;;13.30;99.90;;;;;;5068220;28;20041;-56
2023/06/30 04:55:46;;;;;;;10.95;3.30;;;13.30;99.90;;;;;;5069268;28;21571;-57
2023/06/30 04:58:12;;;;;;;13.65;3.90;;;13.40;99.90;;;;;;5071729;28;20044;-57
2023/06/30 05:00:39;;;;;;;10.73;3.72;;;13.40;99.90;;;;;;5062082;28;20100;-57
2023/06/30 05:03:05;;;;;;;13.75;3.55;;;13.40;99.90;;;;;;5071496;28;20148;-55
2023/06/30 05:05:31;;;;;;;12.20;3.80;;;13.50;99.90;;;;;;5061016;28;20489;-56
2023/06/30 05:07:57;;;;;;;10.23;3.85;;;13.50;99.90;;;;;;5074904;28;20048;-57
2023/06/30 05:10:22;;;;;;;10.45;3.42;;;13.60;99.90;;;;;;5074246;28;20045;-57
2023/06/30 05:12:48;;;;;;;7.00;3.53;;;13.60;99.90;;;;;;5075076;28;20036;-58
2023/06/30 05:15:14;;;;;;;12.07;3.67;;;13.70;99.90;;;;;;5080339;28;20101;-55
2023/06/30 05:17:40;;;;;;;7.88;3.33;;;13.70;99.90;;;;;;5072813;28;20041;-57
2023/06/30 05:20:08;;;;;;;11.80;3.90;;;13.80;99.90;;;;;;5061568;28;20037;-57
2023/06/30 05:22:34;;;;;;;10.52;3.58;;;13.80;99.90;;;;;;5065585;28;20044;-55
2023/06/30 05:25:00;;;;;;;12.57;4.13;;;13.90;99.90;;;;;;5066423;28;20044;-56
2023/06/30 05:27:26;;;;;;;11.68;3.50;;;14.00;99.90;;;;;;5075831;28;20032;-57
2023/06/30 05:29:51;;;;;;;12.07;3.90;;;14.00;99.90;;;;;;5080012;28;20028;-58
2023/06/30 05:32:17;;;;;;;10.75;3.88;;;14.10;99.90;;;;;;5079707;28;20039;-57
2023/06/30 05:34:43;;;;;;;14.73;4.03;;;14.20;99.90;;;;;;5077443;28;20077;-57
2023/06/30 05:37:09;;;;;;;8.70;3.60;;;14.20;99.90;;;;;;5061016;28;20100;-57
2023/06/30 05:39:35;;;;;;;7.38;4.38;;;14.30;99.90;;;;;;5065940;28;20070;-57
2023/06/30 05:42:01;;;;;;;12.48;3.60;;;14.40;99.90;;;;;;5067740;28;20172;-57
2023/06/30 05:44:27;;;;;;;14.90;4.22;;;14.40;99.90;;;;;;5059881;28;20078;-58
2023/06/30 05:46:53;;;;;;;9.32;3.75;;;14.50;99.90;;;;;;5065364;28;20036;-57
2023/06/30 05:49:18;;;;;;;10.15;3.50;;;14.60;99.90;;;;;;5068071;28;20032;-57
2023/06/30 05:51:44;;;;;;;12.50;3.83;;;14.70;99.90;;;;;;5066744;28;20533;-56
2023/06/30 05:54:10;;;;;;;11.38;3.97;;;14.80;99.90;;;;;;5069020;28;20558;-56
2023/06/30 05:56:36;;;;;;;7.85;3.60;;;14.90;99.90;;;;;;5070724;28;20566;-56
2023/06/30 05:59:01;;;;;;;12.75;3.38;;;15.00;99.90;;;;;;5079440;28;20040;-57
2023/06/30 06:01:27;;;;;;;13.75;3.03;;;15.10;99.90;;;;;;5077636;28;20389;-57
2023/06/30 06:03:53;;;;;;;11.88;3.28;;;15.20;99.90;;;;;;5079340;28;20052;-56
2023/06/30 06:06:21;;;;;;;8.38;2.67;;;15.30;99.90;;;;;;5075310;28;20134;-57
2023/06/30 06:08:46;;;;;;;8.32;2.88;;;15.40;99.90;;;;;;5065455;28;20025;-55
2023/06/30 06:11:13;;;;;;;6.93;2.40;;;15.50;99.90;;;;;;5066877;28;20041;-55
2023/06/30 06:13:39;;;;;;;8.18;2.03;;;15.60;99.90;;;;;;5069115;28;20382;-56
2023/06/30 06:16:06;;;;;;;12.40;2.63;;;15.70;99.90;;;;;;5059958;28;20592;-56
2023/06/30 06:18:33;;;;;;;10.48;1.95;;;15.90;99.90;;;;;;5059862;28;20037;-56
2023/06/30 06:20:59;;;;;;;4.68;1.80;;;15.90;99.90;;;;;;5070156;28;20036;-56
2023/06/30 06:23:25;;;;;;;4.55;1.70;;;16.10;99.90;;;;;;5059853;28;20127;-56
2023/06/30 06:25:51;;;;;;;6.82;1.92;;;16.20;99.90;;;;;;5070696;28;20416;-55
2023/06/30 06:28:17;;;;;;;8.20;2.00;;;16.20;99.90;;;;;;5068533;28;20068;-55
2023/06/30 06:30:43;;;;;;;6.97;1.83;;;16.30;99.90;;;;;;5063434;28;20041;-56
2023/06/30 06:33:09;;;;;;;8.10;1.92;;;16.40;99.90;;;;;;5078340;28;20096;-55
2023/06/30 06:35:35;;;;;;;6.90;1.40;;;16.50;99.90;;;;;;5075914;28;20089;-56
2023/06/30 06:38:01;;;;;;;8.35;1.83;;;16.60;99.90;;;;;;5062972;28;20483;-57
2023/06/30 06:40:28;;;;;;;6.28;1.60;;;16.70;99.90;;;;;;5080414;28;20052;-56
2023/06/30 06:42:55;;;;;;;8.68;2.25;;;16.80;99.90;;;;;;5078226;28;20075;-56
2023/06/30 06:45:25;;;;;;;9.45;2.17;;;16.90;99.90;;;;;;5071794;28;20064;-55
2023/06/30 06:48:15;;;;;;;6.68;1.65;;;17.00;99.90;;;;;;5063248;28;20053;-56
2023/06/30 06:50:41;;;;;;;5.25;1.58;;;17.10;99.90;;;;;;5067049;28;20131;-56
2023/06/30 06:53:07;;;;;;;9.70;2.15;;;17.20;99.90;;;;;;5076347;28;20393;-56
2023/06/30 06:55:33;;;;;;;5.53;1.42;;;17.20;99.90;;;;;;5080027;28;20043;-56
2023/06/30 06:57:59;;;;;;;5.47;1.45;;;17.20;99.90;;;;;;5072174;28;20045;-56
2023/06/30 07:00:25;;;;;;;8.85;2.17;;;17.40;99.90;;;;;;5065222;28;20100;-56
2023/06/30 07:02:51;;;;;;;4.60;1.90;;;17.50;99.90;;;;;;5064637;28;20064;-55
2023/06/30 07:05:17;;;;;;;7.32;1.88;;;17.70;99.90;;;;;;5058743;28;20473;-57
2023/06/30 07:07:43;;;;;;;10.32;1.80;;;17.80;99.90;;;;;;5075666;28;20092;-56
2023/06/30 07:10:09;;;;;;;6.47;1.98;;;17.90;99.90;;;;;;5073060;28;20048;-55
2023/06/30 07:12:35;;;;;;;8.48;1.80;;;17.90;99.90;;;;;;5054982;28;20032;-55
2023/06/30 07:15:01;;;;;;;10.65;2.03;;;17.90;99.90;;;;;;5064106;28;20054;-55
2023/06/30 07:17:26;;;;;;;9.35;1.95;;;17.90;99.90;;;;;;5060124;28;20041;-56
2023/06/30 07:19:52;;;;;;;7.75;1.85;;;17.90;99.90;;;;;;5062544;28;20072;-55
2023/06/30 07:22:18;;;;;;;4.82;1.67;;;18.00;99.90;;;;;;5060192;28;20041;-55
2023/06/30 07:24:43;;;;;;;6.60;1.80;;;18.10;99.90;;;;;;5074756;28;20033;-55
2023/06/30 07:27:09;;;;;;;4.97;1.70;;;18.00;99.90;;;;;;5063448;28;20057;-55
2023/06/30 07:29:35;;;;;;;9.32;1.90;;;18.00;99.90;;;;;;5065418;28;20040;-55
2023/06/30 07:32:00;;;;;;;5.45;1.60;;;18.10;99.90;;;;;;5060505;28;20051;-54
2023/06/30 07:34:29;;;;;;;8.15;1.90;;;18.20;99.90;;;;;;5071206;28;20068;-55
2023/06/30 07:36:54;;;;;;;4.82;1.60;;;18.50;99.90;;;;;;5072124;28;20088;-55
2023/06/30 07:39:20;;;;;;;6.50;1.65;;;18.70;99.90;;;;;;5070349;28;20538;-56
2023/06/30 07:41:45;;;;;;;7.63;2.03;;;18.80;99.90;;;;;;5066997;28;20053;-55
2023/06/30 07:44:11;;;;;;;4.68;1.60;;;18.80;99.90;;;;;;5069620;28;20044;-55
2023/06/30 07:46:38;;;;;;;9.50;1.75;;;18.90;99.90;;;;;;5063656;28;20056;-56
2023/06/30 07:49:04;;;;;;;6.03;1.85;;;19.00;99.90;;;;;;5067735;28;20037;-56
2023/06/30 07:51:30;;;;;;;3.83;1.60;;;19.00;99.90;;;;;;5069092;28;20033;-55
2023/06/30 07:53:56;;;;;;;5.82;1.35;;;19.10;99.90;;;;;;5069873;28;20068;-55
2023/06/30 07:56:23;;;;;;;5.72;1.60;;;19.40;99.90;;;;;;5068085;28;20041;-56
2023/06/30 07:58:49;;;;;;;9.77;2.00;;;19.70;99.90;;;;;;5067011;28;20044;-54
2023/06/30 08:01:14;;;;;;;5.07;1.33;;;20.00;99.90;;;;;;5067846;28;20071;-55
2023/06/30 08:03:40;;;;;;;9.07;1.50;;;20.10;99.90;;;;;;5057921;28;20041;-56
2023/06/30 08:06:06;;;;;;;8.57;1.73;;;20.40;99.90;;;;;;5063311;28;20045;-57
2023/06/30 08:08:32;;;;;;;14.85;1.83;;;20.50;99.90;;;;;;5068598;28;20119;-58
2023/06/30 08:10:58;;;;;;;5.68;1.70;;;20.50;99.90;;;;;;5063151;28;20194;-56
2023/06/30 08:13:25;;;;;;;4.82;1.45;;;20.60;99.90;;;;;;5068104;28;20041;-57
2023/06/30 08:15:50;;;;;;;5.00;1.15;;;20.60;99.90;;;;;;5073322;28;20045;-56
2023/06/30 08:18:16;;;;;;;4.65;1.52;;;20.60;99.90;;;;;;5069503;28;20043;-57
2023/06/30 08:20:42;;;;;;;5.03;1.95;;;20.60;99.90;;;;;;5068349;28;20082;-56
2023/06/30 08:23:07;;;;;;;6.00;1.80;;;20.60;99.90;;;;;;5049458;28;20048;-56
2023/06/30 08:25:33;;;;;;;5.80;1.40;;;20.50;99.90;;;;;;5070896;28;20041;-56
2023/06/30 08:27:59;;;;;;;5.95;1.58;;;20.40;99.90;;;;;;5064928;28;20171;-56
2023/06/30 08:30:25;;;;;;;5.07;1.50;;;20.30;99.90;;;;;;5073634;28;20040;-55
2023/06/30 08:32:51;;;;;;;3.70;1.30;;;20.40;99.90;;;;;;5064115;28;20100;-55
2023/06/30 08:35:16;;;;;;;5.85;1.42;;;20.60;99.90;;;;;;5075376;28;20051;-57
2023/06/30 08:37:42;;;;;;;7.65;1.65;;;20.80;99.90;;;;;;5067935;28;20037;-55
2023/06/30 08:40:09;;;;;;;6.72;1.45;;;21.00;99.90;;;;;;5069411;28;20088;-56
2023/06/30 08:42:38;;;;;;;7.50;1.30;;;21.20;99.90;;;;;;5070617;28;20049;-56
2023/06/30 08:45:05;;;;;;;4.78;1.70;;;21.30;99.60;;;;;;5068447;28;20033;-55
2023/06/30 08:47:32;;;;;;;4.15;1.20;;;21.50;98.50;;;;;;5077331;28;20139;-56
2023/06/30 08:49:58;;;;;;;2.97;1.02;;;21.60;98.40;;;;;;5066565;28;20099;-56
2023/06/30 08:52:25;;;;;;;8.63;1.30;;;21.60;97.90;;;;;;5066774;28;20037;-55
2023/06/30 08:54:51;;;;;;;5.22;1.60;;;21.50;98.70;;;;;;5074861;28;20032;-55
2023/06/30 08:57:17;;;;;;;3.92;1.30;;;21.40;99.00;;;;;;5071503;28;20096;-57
2023/06/30 08:59:43;;;;;;;5.32;1.63;;;21.20;99.00;;;;;;5068401;28;20425;-58
2023/06/30 09:02:11;;;;;;;6.97;1.40;;;20.90;99.60;;;;;;5068237;28;20036;-58
2023/06/30 09:04:39;;;;;;;4.40;1.50;;;20.70;99.90;;;;;;5058773;28;20041;-57
2023/06/30 09:07:08;;;;;;;4.30;1.20;;;20.50;99.70;;;;;;5077932;28;20059;-58
2023/06/30 09:09:42;;;;;;;8.43;1.45;;;20.40;99.90;;;;;;5061121;28;20090;-57
2023/06/30 09:12:09;;;;;;;5.95;1.70;;;20.40;99.90;;;;;;5065834;28;20049;-57
2023/06/30 09:14:38;;;;;;;7.72;1.90;;;20.60;99.90;;;;;;5062280;28;20040;-58
2023/06/30 09:17:04;;;;;;;8.93;1.77;;;20.80;99.90;;;;;;5075741;28;20029;-58
2023/06/30 09:19:30;;;;;;;5.88;1.50;;;21.00;99.60;;;;;;5074884;28;20047;-57
2023/06/30 09:21:59;;;;;;;5.35;1.73;;;21.10;99.60;;;;;;5060731;28;20080;-58
2023/06/30 09:24:26;;;;;;;6.07;1.40;;;21.30;99.30;;;;;;5073732;28;20064;-58
2023/06/30 09:26:53;;;;;;;3.97;1.55;;;21.50;98.70;;;;;;5071305;28;20032;-57
2023/06/30 09:29:23;;;;;;;6.47;1.60;;;21.60;98.10;;;;;;5071866;28;20520;-58
2023/06/30 09:31:52;;;;;;;9.43;2.10;;;21.70;98.10;;;;;;5072694;28;20100;-57
2023/06/30 09:34:21;;;;;;;5.22;1.50;;;21.90;97.90;;;;;;5069246;28;20055;-58
2023/06/30 09:36:52;;;;;;;7.07;1.50;;;22.00;97.40;;;;;;5061288;28;20077;-58
2023/06/30 09:39:22;;;;;;;3.67;1.40;;;22.20;95.50;;;;;;5061880;28;20040;-58
2023/06/30 09:41:48;;;;;;;5.03;1.25;;;22.20;96.20;;;;;;5066900;28;20073;-58
2023/06/30 09:44:22;;;;;;;3.80;1.55;;;22.00;95.50;;;;;;5068840;28;20051;-58
2023/06/30 09:46:52;;;;;;;5.53;1.63;;;21.80;95.50;;;;;;5059304;28;20037;-57
2023/06/30 09:49:30;;;;;;;4.00;1.40;;;21.70;95.70;;;;;;5061986;28;20120;-57
2023/06/30 09:51:58;;;;;;;3.55;1.10;;;21.70;96.00;;;;;;5062570;28;20195;-58
2023/06/30 09:54:24;;;;;;;6.68;1.33;;;21.80;95.60;;;;;;5069410;28;20041;-58
2023/06/30 09:57:00;;;;;;;5.28;1.30;;;21.90;95.60;;;;;;5065949;28;20043;-58
2023/06/30 09:59:27;;;;;;;9.45;1.45;;;21.80;94.70;;;;;;5063238;28;20049;-56
2023/06/30 10:01:56;;;;;;;4.25;1.27;;;21.80;95.30;;;;;;5057750;28;20079;-56
2023/06/30 10:04:23;;;;;;;3.70;1.50;;;21.80;94.80;;;;;;5059533;28;20040;-56
2023/06/30 10:06:51;;;;;;;4.88;1.50;;;21.90;94.70;;;;;;5061944;28;20094;-56
2023/06/30 10:09:20;;;;;;;5.57;1.48;;;21.90;94.70;;;;;;5068062;28;20057;-56
2023/06/30 10:11:50;;;;;;;5.05;1.70;;;21.90;94.40;;;;;;5070675;28;20087;-57
2023/06/30 10:14:26;;;;;;;5.97;1.65;;;21.80;94.50;;;;;;5066843;28;20058;-58
2023/06/30 10:16:54;;;;;;;5.75;1.42;;;21.80;94.50;;;;;;5072702;28;20500;-57
2023/06/30 10:19:20;;;;;;;4.80;1.23;;;21.80;94.30;;;;;;5068586;28;20049;-58
2023/06/30 10:21:48;;;;;;;3.58;1.42;;;21.90;94.10;;;;;;5066290;28;20076;-57
2023/06/30 10:24:14;;;;;;;3.35;1.40;;;21.90;93.70;;;;;;5058792;28;20526;-57
2023/06/30 10:26:40;;;;;;;2.90;1.50;;;21.90;93.20;;;;;;5068610;28;20041;-58
2023/06/30 10:29:06;;;;;;;5.57;1.70;;;21.90;92.80;;;;;;5060467;28;20047;-58
2023/06/30 10:31:33;;;;;;;5.18;2.20;;;21.80;93.00;;;;;;5063620;28;20076;-58
2023/06/30 10:33:58;;;;;;;7.22;1.80;;;21.70;93.10;;;;;;5069676;28;20040;-56
2023/06/30 10:36:25;;;;;;;4.20;1.63;;;21.60;93.40;;;;;;5064735;28;20068;-58
2023/06/30 10:38:51;;;;;;;3.85;1.33;;;21.60;93.70;;;;;;5058938;28;20048;-58
2023/06/30 10:41:19;;;;;;;3.15;1.50;;;21.60;93.60;;;;;;5062109;28;20048;-57
2023/06/30 10:44:03;;;;;;;4.88;1.50;;;21.70;93.30;;;;;;5065792;28;20040;-58
2023/06/30 10:46:41;;;;;;;4.72;1.50;;;21.80;92.70;;;;;;5062159;28;20049;-56
2023/06/30 10:49:07;;;;;;;4.97;1.48;;;21.80;93.00;;;;;;5064602;28;20040;-58
2023/06/30 10:51:36;;;;;;;7.25;1.70;;;21.70;93.50;;;;;;5065353;28;20063;-56
2023/06/30 10:54:02;;;;;;;6.88;1.40;;;21.80;93.50;;;;;;5063701;28;20048;-55
2023/06/30 10:56:29;;;;;;;6.60;1.75;;;21.80;93.70;;;;;;5062331;28;20199;-55
2023/06/30 10:58:58;;;;;;;5.03;1.80;;;21.80;93.70;;;;;;5067155;28;20045;-56
2023/06/30 11:01:27;;;;;;;5.47;1.70;;;21.70;93.70;;;;;;5060317;28;20049;-56
2023/06/30 11:03:56;;;;;;;4.18;1.98;;;21.80;94.00;;;;;;5062344;28;20044;-55
2023/06/30 11:06:22;;;;;;;6.00;2.38;;;21.80;94.00;;;;;;5057023;28;20112;-55
2023/06/30 11:09:02;;;;;;;6.70;1.70;;;21.90;94.00;;;;;;5065308;28;20128;-55
2023/06/30 11:11:27;;;;;;;4.78;1.70;;;21.90;94.20;;;;;;5062058;28;20048;-56
2023/06/30 11:14:06;;;;;;;5.10;1.50;;;21.90;94.00;;;;;;5065409;28;20041;-55
2023/06/30 11:17:05;;;;;;;7.97;2.10;;;21.80;94.10;;;;;;5064665;28;20524;-55
2023/06/30 11:19:31;;;;;;;5.38;1.90;;;21.70;94.00;;;;;;5065715;28;20056;-55
2023/06/30 11:22:22;;;;;;;4.07;1.67;;;21.60;94.20;;;;;;5065294;28;20439;-58
2023/06/30 11:24:48;;;;;;;5.63;1.70;;;21.60;94.20;;;;;;5059999;28;20081;-56
2023/06/30 11:27:15;;;;;;;4.55;1.83;;;21.60;94.30;;;;;;5057625;28;20582;-56
2023/06/30 11:29:41;;;;;;;5.65;1.95;;;21.60;94.60;;;;;;5063474;28;20087;-56
2023/06/30 11:32:08;;;;;;;5.53;2.10;;;21.60;95.00;;;;;;5073013;28;20139;-55
2023/06/30 11:34:34;;;;;;;7.53;1.77;;;21.70;94.90;;;;;;5069860;28;20056;-55
2023/06/30 11:37:07;;;;;;;4.05;1.60;;;21.70;94.30;;;;;;5062608;28;20056;-55
2023/06/30 11:39:35;;;;;;;4.90;1.42;;;21.70;93.70;;;;;;5059945;28;20064;-56
2023/06/30 11:42:00;;;;;;;5.63;1.25;;;21.70;94.10;;;;;;5065408;28;20470;-57
2023/06/30 11:44:26;;;;;;;4.18;1.67;;;21.90;94.20;;;;;;5057453;28;20044;-58
2023/06/30 11:46:52;;;;;;;4.72;1.95;;;22.10;94.50;;;;;;5065845;28;20028;-57
2023/06/30 11:49:18;;;;;;;5.60;1.67;;;22.30;94.40;;;;;;5059177;28;20037;-56
2023/06/30 11:51:45;;;;;;;4.93;1.67;;;22.40;93.80;;;;;;5060657;28;20126;-57
2023/06/30 11:54:13;;;;;;;7.15;1.80;;;22.60;93.90;;;;;;5062810;28;20044;-56
2023/06/30 11:56:39;;;;;;;3.72;1.48;;;22.80;93.10;;;;;;5057136;28;20044;-56
2023/06/30 11:59:05;;;;;;;5.55;1.60;;;22.80;92.90;;;;;;5057526;28;20033;-56
2023/06/30 12:01:31;;;;;;;4.82;1.45;;;22.90;92.80;;;;;;5060046;28;20045;-57
2023/06/30 12:04:08;;;;;;;3.55;1.38;;;23.10;92.60;;;;;;5065305;28;20508;-55
2023/06/30 12:06:35;;;;;;;5.75;1.65;;;23.00;91.80;;;;;;5067524;28;20053;-56
2023/06/30 12:09:02;;;;;;;6.82;1.85;;;23.00;91.60;;;;;;5057873;28;20539;-57
2023/06/30 12:11:30;;;;;;;5.50;1.83;;;23.00;91.70;;;;;;5073274;28;20623;-56
2023/06/30 12:13:55;;;;;;;5.72;1.90;;;23.00;91.30;;;;;;5069892;28;20041;-56
2023/06/30 12:16:26;;;;;;;4.82;1.70;;;22.90;91.20;;;;;;5070299;28;20447;-57
2023/06/30 12:18:53;;;;;;;3.63;1.95;;;22.80;90.90;;;;;;5073195;28;20052;-57
2023/06/30 12:21:19;;;;;;;5.63;1.80;;;22.70;91.30;;;;;;5077519;28;20040;-57
2023/06/30 12:23:45;;;;;;;4.65;1.73;;;22.60;91.40;;;;;;5065306;28;20045;-56
2023/06/30 12:26:12;;;;;;;5.05;1.73;;;22.60;91.70;;;;;;5060778;28;20033;-57
2023/06/30 12:28:39;;;;;;;7.88;2.47;;;22.70;91.70;;;;;;5063149;28;20032;-57
2023/06/30 12:31:04;;;;;;;6.38;1.65;;;22.80;91.70;;;;;;5065375;28;20116;-57
2023/06/30 12:33:30;;;;;;;4.20;1.42;;;23.00;91.80;;;;;;5062562;28;20399;-56
2023/06/30 12:35:56;;;;;;;3.28;1.50;;;23.10;91.20;;;;;;5064364;28;20049;-57
2023/06/30 12:38:22;;;;;;;4.65;1.75;;;23.40;91.20;;;;;;5057932;28;20068;-57
2023/06/30 12:40:52;;;;;;;4.10;1.55;;;23.60;90.80;;;;;;5061022;28;20050;-57
2023/06/30 12:43:17;;;;;;;4.78;1.55;;;23.90;90.80;;;;;;5071081;28;20052;-57